Aeroporto :
LOGIN :

Iscrizione | Disclaimer

   EN    FR    IT 

 










Sommario :    VFR   VFR Marginale   IFR   IFR Intensivo   IFR Molto Intensivo
Visibilità : 
Base nubi : 
>= 8 km
>= 3000ft
5 / 8 km
1000 / 3000 ft
1500m / 5 km
500 / 1000 ft
800 / 1500m
200 / 500 ft
< 800m
< 200 ft
Simboli :   Temporali  Nebbia  Neve Forte  Precipitazioni Forti  Vento > 20 kt
SIGMETs :   Varie  Temporali  Ghiacco  Turbolenza  Onda orograficha  Ceneri Vulcaniche






- Altitudine del aeroporto : -11 ft
- Codice IATA : AMS


EHAM - Amsterdam Schiphol

ULTIMO METAR :
  • 271125Z 03011KT 350V060 9999 FEW019 BKN028 16/11 Q1004 NOSIG

METARs OBSOLETI :
  • 271055Z 05011KT 360V080 9999 FEW017 BKN028 16/11 Q1003 NOSIG
  • 271025Z 04014KT 020V080 9999 FEW017 BKN028 15/11 Q1003 NOSIG
  • 270955Z 05011KT 020V090 9999 SCT017 BKN028 15/12 Q1003 TEMPO BKN017
  • 270925Z 05011KT 030V090 9999 SCT017 15/12 Q1002 TEMPO BKN017
  • 270855Z 05013KT 030V090 9999 FEW017 SCT022 15/12 Q1002 NOSIG

TAF TAF EHAM
Valido dal 27 a 12 ore il 28 a 18 ore UTC


271118Z 2712/2818 05010KT 9999 SCT018
BECMG 2716/2719 VRB03KT
BECMG 2802/2805 24005KT 7000 -RADZ FEW007 BKN014
BECMG 2805/2808 3500 -DZ BR FEW004 BKN007
PROB40
TEMPO 2808/2812 2000 DZ SCT003 BKN004
BECMG 2809/2812 33008KT



MetMap, La meteo Aeronautica in un colpo d'occhio ! - Copyright ORBIFLY Dicembre 2007 - Disclaimer

ORBIFLY MET'MAP TEAM :

Programmazione e sviluppo : Alexandra Zaïnal
Concezione : Baudouin d'Aumeries
Aiuto per la programmazione : Marc-Olivier Méhu
Supporto tecnico e logistico : Manuel Goepfert
Aiuto per la traduzione : Arnaldo La Scala

Contatto : metmap@orbifly.com




FONTI E CREDITI :

   NOAA